Airfield :
LOGIN :

Register | Disclaimer

   EN    FR    IT 

 










Legend :    VFR   Marginal VFR   IFR   Intensive IFR   Very Intensive IFR
Visi :
Ceiling :
>= 8 km
>= 3000ft
5 to 8 km
1000 to 3000 ft
1500m to 5 km
500 to 1000 ft
800 to 1500m
200 to 500 ft
< 800m
< 200 ft
Symbols :   Thunderstorms  Fog  Heavy snow  Heavy precipitations  Wind > 20 kt
SIGMETs :     Misc.  Thunderstorms  Icing  Turbulence  Mountain Waves  Volcanic Ashes







- Airport Elevation : 1475 ft


LSZC - Buochs Stans

CURRENT METAR :
  • 182050Z AUTO 20007KT 180V240 9999 OVC027 03/M01 Q1023

EXPIRED METARs :
  • 182020Z AUTO 18008KT 9999 OVC029 03/M01 Q1024
  • 181950Z AUTO 21004KT 180V250 9999 OVC030 03/M00 Q1023
  • 181920Z AUTO VRB02KT 9999 BKN027 04/M00 Q1023
  • 181850Z AUTO 21005KT 160V280 9999 OVC024 04/M00 Q1023
  • 181820Z AUTO 18005KT 9999 OVC024 04/M00 Q1023

Expired Forecast.
No reported NOTAMs for that airfield.



MET'MAP, your aeronautical weather chart ! - Copyright ORBIFLY December 2007 - Disclaimer

ORBIFLY MET'MAP TEAM :

Programming & Development : Alexandra Zaïnal
Concept & Development : Baudouin d'Aumeries
Co-Development & Prog : Marc-Olivier Méhu
Technical & hardware support : Manuel Goepfert

Contact : metmap@orbifly.com




SOURCES & CREDITS :

   NOAA